createdAt,value
2023-03-26T00:01:36.865Z,11.10
2023-03-26T00:04:06.747Z,11.10
2023-03-26T00:06:39.407Z,11.10
2023-03-26T00:09:10.193Z,11.20
2023-03-26T00:11:37.706Z,11.20
2023-03-26T00:14:05.654Z,11.30
2023-03-26T00:16:33.920Z,11.30
2023-03-26T00:19:02.013Z,11.30
2023-03-26T00:21:30.588Z,11.30
2023-03-26T00:24:07.311Z,11.30
2023-03-26T00:26:37.621Z,11.30
2023-03-26T00:29:05.005Z,11.30
2023-03-26T00:31:33.124Z,11.30
2023-03-26T00:34:03.210Z,11.30
2023-03-26T00:36:30.080Z,11.30
2023-03-26T00:38:57.004Z,11.20
2023-03-26T00:41:26.900Z,11.20
2023-03-26T00:43:57.758Z,11.20
2023-03-26T00:46:28.172Z,11.10
2023-03-26T00:48:58.822Z,11.10
2023-03-26T00:51:26.765Z,11.10
2023-03-26T00:53:53.842Z,11.10
2023-03-26T00:56:20.940Z,11.10
2023-03-26T00:58:50.188Z,11.00
2023-03-26T01:01:28.674Z,11.00
2023-03-26T01:04:28.184Z,11.00
2023-03-26T01:06:58.525Z,11.00
2023-03-26T01:09:35.449Z,11.00
2023-03-26T01:12:06.818Z,10.90
2023-03-26T01:14:33.931Z,10.90
2023-03-26T01:17:06.968Z,10.90
2023-03-26T01:19:44.660Z,10.90
2023-03-26T01:22:23.210Z,10.90
2023-03-26T01:24:56.108Z,10.90
2023-03-26T01:27:34.802Z,10.90
2023-03-26T01:30:11.170Z,10.80
2023-03-26T01:33:05.407Z,10.80
2023-03-26T01:35:48.446Z,10.80
2023-03-26T01:38:51.998Z,10.80
2023-03-26T01:41:37.744Z,10.80
2023-03-26T01:44:24.372Z,10.80
2023-03-26T01:46:52.610Z,10.70
2023-03-26T01:49:19.917Z,10.70
2023-03-26T01:51:47.724Z,10.70
2023-03-26T01:54:22.896Z,10.70
2023-03-26T01:57:24.550Z,10.70
2023-03-26T02:00:18.079Z,10.60
2023-03-26T02:02:56.883Z,10.60
2023-03-26T02:05:54.620Z,10.60
2023-03-26T02:08:35.582Z,10.60
2023-03-26T02:11:11.548Z,10.60
2023-03-26T02:13:45.815Z,10.50
2023-03-26T02:16:18.582Z,10.60
2023-03-26T02:18:51.327Z,10.60
2023-03-26T02:21:22.165Z,10.60
2023-03-26T02:23:57.667Z,10.60
2023-03-26T02:26:25.557Z,10.60
2023-03-26T02:28:52.417Z,10.60
2023-03-26T02:31:19.413Z,10.60
2023-03-26T02:33:47.655Z,10.60
2023-03-26T02:36:19.552Z,10.60
2023-03-26T02:38:46.756Z,10.60
2023-03-26T02:41:13.735Z,10.60
2023-03-26T02:43:40.747Z,10.60
2023-03-26T02:46:07.678Z,10.60
2023-03-26T02:48:34.815Z,10.60
2023-03-26T02:51:03.317Z,10.60
2023-03-26T02:53:30.521Z,10.70
2023-03-26T02:55:58.617Z,10.60
2023-03-26T02:58:30.108Z,10.60
2023-03-26T03:00:57.148Z,10.60
2023-03-26T03:03:27.331Z,10.60
2023-03-26T03:05:56.061Z,10.60
2023-03-26T03:08:26.804Z,10.60
2023-03-26T03:11:03.931Z,10.60
2023-03-26T03:13:30.720Z,10.60
2023-03-26T03:15:57.750Z,10.60
2023-03-26T03:18:24.715Z,10.60
2023-03-26T03:20:51.840Z,10.60
2023-03-26T03:23:18.723Z,10.60
2023-03-26T03:25:46.230Z,10.60
2023-03-26T03:28:13.953Z,10.70
2023-03-26T03:30:40.952Z,10.70
2023-03-26T03:33:07.929Z,10.70
2023-03-26T03:35:35.173Z,10.70
2023-03-26T03:38:02.068Z,10.80
2023-03-26T03:40:28.988Z,10.70
2023-03-26T03:42:55.895Z,10.70
2023-03-26T03:45:22.768Z,10.70
2023-03-26T03:47:49.731Z,10.70
2023-03-26T03:50:16.677Z,10.80
2023-03-26T03:52:43.566Z,10.80
2023-03-26T03:55:10.669Z,10.80
2023-03-26T03:57:38.231Z,10.80
2023-03-26T04:00:08.072Z,10.80
2023-03-26T04:02:35.362Z,10.80
2023-03-26T04:05:04.717Z,10.80
2023-03-26T04:07:32.936Z,10.80
2023-03-26T04:10:03.056Z,10.80
2023-03-26T04:12:31.564Z,10.80
2023-03-26T04:14:59.349Z,10.80
2023-03-26T04:17:26.681Z,10.80
2023-03-26T04:19:55.008Z,10.90
2023-03-26T04:22:23.550Z,10.90
2023-03-26T04:24:54.327Z,10.90
2023-03-26T04:27:27.884Z,10.90
2023-03-26T04:29:55.049Z,10.90
2023-03-26T04:32:34.229Z,10.90
2023-03-26T04:35:04.116Z,10.90
2023-03-26T04:37:41.135Z,10.90
2023-03-26T04:40:19.544Z,11.00
2023-03-26T04:42:46.606Z,10.90
2023-03-26T04:45:16.036Z,10.90
2023-03-26T04:47:43.637Z,10.90
2023-03-26T04:50:11.851Z,10.90
2023-03-26T04:52:39.166Z,10.90
2023-03-26T04:55:19.559Z,10.90
2023-03-26T04:57:53.713Z,11.00
2023-03-26T05:00:21.389Z,10.90
2023-03-26T05:02:50.572Z,11.00
2023-03-26T05:05:18.301Z,11.00
2023-03-26T05:07:45.362Z,11.00
2023-03-26T05:10:16.505Z,11.00
2023-03-26T05:12:43.584Z,11.00
2023-03-26T05:15:13.200Z,11.00
2023-03-26T05:17:41.763Z,11.00
2023-03-26T05:20:31.125Z,11.00
2023-03-26T05:22:58.096Z,11.10
2023-03-26T05:25:25.600Z,11.10
2023-03-26T05:27:52.621Z,11.10
2023-03-26T05:30:22.284Z,11.10
2023-03-26T05:32:50.091Z,11.10
2023-03-26T05:35:18.367Z,11.10
2023-03-26T05:37:47.100Z,11.10
2023-03-26T05:40:17.178Z,11.10
2023-03-26T05:42:45.400Z,11.10
2023-03-26T05:45:14.930Z,11.10
2023-03-26T05:47:41.960Z,11.10
2023-03-26T05:50:10.320Z,11.10
2023-03-26T05:52:37.778Z,11.10
2023-03-26T05:55:05.556Z,11.20
2023-03-26T05:57:32.725Z,11.20
2023-03-26T05:59:59.646Z,11.30
2023-03-26T06:02:26.494Z,11.30
2023-03-26T06:04:53.355Z,11.30
2023-03-26T06:07:21.034Z,11.30
2023-03-26T06:09:48.081Z,11.30
2023-03-26T06:12:15.757Z,11.30
2023-03-26T06:14:43.007Z,11.30
2023-03-26T06:17:10.756Z,11.30
2023-03-26T06:19:37.945Z,11.40
2023-03-26T06:22:05.595Z,11.40
2023-03-26T06:24:33.478Z,11.40
2023-03-26T06:27:00.696Z,11.50
2023-03-26T06:29:27.633Z,11.50
2023-03-26T06:31:54.606Z,11.50
2023-03-26T06:34:21.658Z,11.50
2023-03-26T06:36:48.894Z,11.70
2023-03-26T06:39:16.174Z,11.60
2023-03-26T06:41:43.179Z,11.60
2023-03-26T06:44:11.182Z,11.60
2023-03-26T06:46:38.214Z,11.70
2023-03-26T06:49:05.531Z,11.70
2023-03-26T06:51:32.484Z,11.70
2023-03-26T06:53:59.436Z,11.70
2023-03-26T06:56:26.303Z,11.80
2023-03-26T06:58:53.248Z,11.90
2023-03-26T07:01:20.342Z,11.90
2023-03-26T07:03:47.203Z,11.90
2023-03-26T07:06:14.227Z,11.90
2023-03-26T07:08:41.492Z,12.00
2023-03-26T07:11:08.474Z,12.00
2023-03-26T07:13:36.588Z,12.00
2023-03-26T07:16:03.946Z,12.00
2023-03-26T07:18:30.968Z,12.00
2023-03-26T07:20:58.372Z,12.00
2023-03-26T07:23:25.886Z,12.00
2023-03-26T07:25:53.208Z,12.00
2023-03-26T07:28:39.541Z,12.00
2023-03-26T07:31:34.751Z,11.90
2023-03-26T07:34:35.960Z,11.90
2023-03-26T07:37:20.469Z,11.90
2023-03-26T07:40:00.681Z,11.90
2023-03-26T07:43:17.252Z,11.80
2023-03-26T07:45:46.016Z,11.80
2023-03-26T07:48:21.964Z,11.70
2023-03-26T07:50:49.442Z,11.60
2023-03-26T07:53:16.766Z,11.60
2023-03-26T07:56:07.678Z,11.50
2023-03-26T07:58:58.657Z,11.50
2023-03-26T08:02:19.441Z,11.40
2023-03-26T08:05:26.503Z,11.40
2023-03-26T08:08:16.494Z,11.40
2023-03-26T08:11:23.608Z,11.40
2023-03-26T08:14:05.562Z,11.40
2023-03-26T08:16:46.020Z,11.50
2023-03-26T08:19:38.365Z,11.50
2023-03-26T08:22:37.382Z,11.60
2023-03-26T08:25:33.277Z,11.60
2023-03-26T08:28:52.951Z,11.70
2023-03-26T08:31:33.103Z,11.80
2023-03-26T08:34:01.336Z,11.80
2023-03-26T08:36:28.424Z,11.80
2023-03-26T08:38:57.416Z,11.80
2023-03-26T08:41:42.404Z,11.80
2023-03-26T08:44:29.849Z,11.90
2023-03-26T08:47:39.956Z,11.90
2023-03-26T08:50:31.023Z,11.90
2023-03-26T08:53:32.905Z,11.90
2023-03-26T08:56:43.485Z,11.90
2023-03-26T08:59:46.509Z,12.00
2023-03-26T09:02:25.888Z,12.10
2023-03-26T09:06:14.242Z,12.10
2023-03-26T09:08:53.820Z,12.10
2023-03-26T09:11:42.628Z,12.10
2023-03-26T09:14:42.706Z,12.10
2023-03-26T09:17:47.191Z,12.10
2023-03-26T09:20:50.990Z,12.10
2023-03-26T09:23:43.916Z,12.00
2023-03-26T09:26:41.697Z,12.10
2023-03-26T09:29:27.361Z,12.00
2023-03-26T09:32:35.980Z,12.00
2023-03-26T09:35:39.432Z,11.90
2023-03-26T09:38:44.125Z,11.90
2023-03-26T09:41:28.727Z,11.90
2023-03-26T09:44:23.723Z,11.90
2023-03-26T09:47:23.260Z,11.80
2023-03-26T09:50:25.429Z,11.80
2023-03-26T09:53:32.399Z,11.70
2023-03-26T09:56:46.284Z,11.70
2023-03-26T09:59:57.162Z,11.70
2023-03-26T10:03:14.697Z,11.60
2023-03-26T10:05:47.128Z,11.60
2023-03-26T10:08:41.372Z,11.60
2023-03-26T10:11:22.467Z,11.60
2023-03-26T10:13:55.284Z,11.60
2023-03-26T10:16:34.949Z,11.60
2023-03-26T10:19:29.088Z,11.60
2023-03-26T10:22:31.214Z,11.60
2023-03-26T10:25:23.519Z,11.60
2023-03-26T10:28:18.021Z,11.60
2023-03-26T10:31:28.359Z,11.60
2023-03-26T10:34:36.163Z,11.70
2023-03-26T10:37:30.971Z,11.70
2023-03-26T10:40:16.389Z,11.60
2023-03-26T10:43:15.443Z,11.60
2023-03-26T10:45:54.164Z,11.60
2023-03-26T10:48:56.561Z,11.60
2023-03-26T10:51:26.494Z,11.50
2023-03-26T10:54:15.035Z,11.50
2023-03-26T10:56:49.699Z,11.40
2023-03-26T10:59:19.037Z,11.40
2023-03-26T11:02:20.915Z,11.30
2023-03-26T11:05:41.855Z,11.20
2023-03-26T11:08:32.745Z,11.20
2023-03-26T11:11:15.542Z,11.00
2023-03-26T11:13:45.206Z,11.00
2023-03-26T11:16:43.148Z,11.00
2023-03-26T11:19:53.006Z,10.80
2023-03-26T11:22:34.696Z,10.90
2023-03-26T11:25:45.413Z,10.90
2023-03-26T11:29:03.228Z,10.90
2023-03-26T11:32:11.808Z,10.90
2023-03-26T11:35:09.082Z,10.90
2023-03-26T11:37:46.429Z,10.90
2023-03-26T11:40:34.601Z,10.90
2023-03-26T11:43:07.525Z,11.00
2023-03-26T11:45:44.068Z,11.00
2023-03-26T11:48:37.940Z,11.00
2023-03-26T11:51:18.304Z,11.00
2023-03-26T11:53:48.716Z,11.00
2023-03-26T11:57:04.541Z,10.90
2023-03-26T11:59:56.353Z,10.80
2023-03-26T12:02:37.781Z,10.70
2023-03-26T12:05:27.439Z,10.70
2023-03-26T12:08:00.728Z,10.60
2023-03-26T12:10:35.096Z,10.60
2023-03-26T12:13:28.260Z,10.60
2023-03-26T12:16:17.886Z,10.60
2023-03-26T12:18:56.994Z,10.60
2023-03-26T12:21:24.025Z,10.60
2023-03-26T12:24:01.811Z,10.70
2023-03-26T12:26:36.547Z,10.80
2023-03-26T12:29:17.792Z,10.90
2023-03-26T12:32:15.827Z,11.10
2023-03-26T12:34:42.974Z,11.20
2023-03-26T12:37:43.335Z,11.30
2023-03-26T12:40:36.742Z,11.50
2023-03-26T12:44:50.407Z,11.50
2023-03-26T12:47:56.628Z,11.60
2023-03-26T12:49:12.300Z,11.70
2023-03-26T12:51:56.844Z,11.70
2023-03-26T12:54:48.445Z,11.80
2023-03-26T12:57:33.079Z,11.80
2023-03-26T13:01:06.543Z,11.80
2023-03-26T13:03:42.208Z,11.80
2023-03-26T13:06:27.578Z,11.80
2023-03-26T13:09:09.091Z,11.90
2023-03-26T13:12:18.358Z,11.90
2023-03-26T13:15:00.437Z,11.90
2023-03-26T13:18:18.112Z,11.90
2023-03-26T13:21:00.902Z,11.90
2023-03-26T13:23:56.473Z,12.00
2023-03-26T13:26:51.245Z,12.00
2023-03-26T13:29:56.475Z,12.00
2023-03-26T13:32:50.764Z,12.00
2023-03-26T13:35:39.686Z,12.10
2023-03-26T13:38:18.321Z,12.10
2023-03-26T13:41:45.805Z,12.10
2023-03-26T13:44:18.747Z,12.10
2023-03-26T13:47:20.194Z,12.20
2023-03-26T13:50:05.542Z,12.20
2023-03-26T13:52:52.884Z,12.20
2023-03-26T13:55:37.325Z,12.20
2023-03-26T13:58:20.866Z,12.20
2023-03-26T14:01:16.885Z,12.20
2023-03-26T14:04:00.875Z,12.20
2023-03-26T14:06:46.652Z,12.20
2023-03-26T14:09:39.580Z,12.20
2023-03-26T14:12:35.929Z,12.30
2023-03-26T14:15:04.408Z,12.40
2023-03-26T14:17:53.449Z,12.30
2023-03-26T14:20:56.617Z,12.30
2023-03-26T14:23:58.492Z,12.30
2023-03-26T14:27:13.081Z,12.30
2023-03-26T14:30:41.287Z,12.30
2023-03-26T14:33:50.397Z,12.30
2023-03-26T14:37:06.300Z,12.40
2023-03-26T14:40:14.694Z,12.40
2023-03-26T14:42:55.982Z,12.40
2023-03-26T14:45:53.824Z,12.40
2023-03-26T14:48:49.265Z,12.30
2023-03-26T14:51:35.413Z,12.30
2023-03-26T14:54:13.289Z,12.30
2023-03-26T14:57:11.148Z,12.40
2023-03-26T15:00:06.211Z,12.30
2023-03-26T15:03:17.537Z,12.30
2023-03-26T15:06:07.579Z,12.40
2023-03-26T15:08:34.515Z,12.40
2023-03-26T15:11:47.891Z,12.40
2023-03-26T15:15:13.722Z,12.40
2023-03-26T15:18:06.270Z,12.40
2023-03-26T15:20:48.319Z,12.50
2023-03-26T15:23:43.004Z,12.50
2023-03-26T15:26:41.682Z,12.50
2023-03-26T15:29:43.126Z,12.50
2023-03-26T15:32:52.670Z,12.50
2023-03-26T15:35:57.832Z,12.60
2023-03-26T15:38:59.095Z,12.60
2023-03-26T15:42:04.212Z,12.60
2023-03-26T15:45:09.522Z,12.60
2023-03-26T15:48:11.802Z,12.60
2023-03-26T15:51:04.989Z,12.60
2023-03-26T15:53:51.408Z,12.60
2023-03-26T15:56:54.705Z,12.50
2023-03-26T15:59:46.367Z,12.50
2023-03-26T16:02:50.337Z,12.50
2023-03-26T16:05:27.631Z,12.50
2023-03-26T16:08:38.709Z,12.50
2023-03-26T16:11:12.540Z,12.40
2023-03-26T16:13:49.897Z,12.30
2023-03-26T16:16:24.513Z,12.20
2023-03-26T16:19:18.872Z,12.10
2023-03-26T16:22:02.217Z,12.10
2023-03-26T16:24:36.113Z,12.00
2023-03-26T16:27:10.556Z,11.90
2023-03-26T16:30:26.909Z,11.80
2023-03-26T16:32:58.906Z,11.60
2023-03-26T16:36:21.461Z,11.50
2023-03-26T16:39:16.687Z,11.30
2023-03-26T16:41:46.821Z,11.10
2023-03-26T16:44:40.187Z,11.00
2023-03-26T16:47:33.974Z,10.90
2023-03-26T16:50:33.678Z,10.80
2023-03-26T16:53:34.816Z,10.70
2023-03-26T16:56:31.047Z,10.70
2023-03-26T17:00:06.187Z,10.60
2023-03-26T17:02:43.624Z,10.50
2023-03-26T17:05:21.090Z,10.50
2023-03-26T17:08:01.789Z,10.50
2023-03-26T17:10:41.314Z,10.50
2023-03-26T17:13:20.424Z,10.50
2023-03-26T17:16:12.018Z,10.50
2023-03-26T17:19:04.320Z,10.50
2023-03-26T17:21:59.904Z,10.40
2023-03-26T17:24:32.823Z,10.50
2023-03-26T17:27:28.206Z,10.50
2023-03-26T17:30:24.964Z,10.40
2023-03-26T17:33:05.979Z,10.40
2023-03-26T17:35:44.654Z,10.40
2023-03-26T17:38:17.659Z,10.40
2023-03-26T17:40:57.608Z,10.40
2023-03-26T17:43:40.395Z,10.40
2023-03-26T17:49:31.075Z,10.40
2023-03-26T17:52:25.388Z,10.50
2023-03-26T17:54:56.873Z,10.40
2023-03-26T17:57:46.362Z,10.50
2023-03-26T18:00:31.526Z,10.50
2023-03-26T18:03:11.209Z,10.50
2023-03-26T18:05:40.040Z,10.50
2023-03-26T18:08:46.489Z,10.50
2023-03-26T18:11:46.577Z,10.50
2023-03-26T18:14:34.168Z,10.50
2023-03-26T18:17:02.614Z,10.40
2023-03-26T18:19:45.554Z,10.40
2023-03-26T18:22:28.383Z,10.30
2023-03-26T18:25:00.138Z,10.20
2023-03-26T18:27:39.148Z,10.10
2023-03-26T18:30:20.556Z,9.90
2023-03-26T18:33:12.583Z,9.80
2023-03-26T18:35:50.612Z,9.70
2023-03-26T18:38:34.989Z,9.50
2023-03-26T18:41:05.948Z,9.40
2023-03-26T18:43:35.725Z,9.30
2023-03-26T18:46:14.506Z,9.20
2023-03-26T18:48:42.244Z,9.20
2023-03-26T18:51:10.012Z,9.10
2023-03-26T18:53:54.547Z,9.00
2023-03-26T18:56:31.668Z,9.00
2023-03-26T18:59:02.415Z,9.00
2023-03-26T19:01:32.536Z,8.90
2023-03-26T19:04:05.264Z,8.90
2023-03-26T19:06:38.532Z,8.90
2023-03-26T19:09:23.872Z,8.80
2023-03-26T19:12:06.248Z,8.90
2023-03-26T19:14:37.064Z,8.80
2023-03-26T19:17:07.194Z,8.80
2023-03-26T19:19:37.803Z,8.80
2023-03-26T19:22:07.539Z,8.80
2023-03-26T19:24:35.019Z,8.80
2023-03-26T19:27:02.661Z,8.80
2023-03-26T19:29:34.109Z,8.70
2023-03-26T19:32:35.472Z,8.70
2023-03-26T19:35:04.568Z,8.70
2023-03-26T19:37:32.374Z,8.70
2023-03-26T19:40:30.149Z,8.80
2023-03-26T19:43:00.041Z,8.70
2023-03-26T19:45:27.047Z,8.70
2023-03-26T19:48:04.036Z,8.70
2023-03-26T19:50:43.806Z,8.70
2023-03-26T19:53:35.232Z,8.70
2023-03-26T19:56:15.074Z,8.60
2023-03-26T19:58:43.105Z,8.70
2023-03-26T20:01:24.930Z,8.60
2023-03-26T20:03:57.896Z,8.60
2023-03-26T20:06:41.666Z,8.60
2023-03-26T20:09:16.343Z,8.60
2023-03-26T20:11:43.488Z,8.60
2023-03-26T20:14:25.799Z,8.60
2023-03-26T20:16:53.616Z,8.60
2023-03-26T20:19:20.576Z,8.70
2023-03-26T20:21:47.494Z,8.80
2023-03-26T20:24:17.849Z,8.70
2023-03-26T20:26:46.293Z,8.70
2023-03-26T20:29:14.561Z,8.70
2023-03-26T20:31:42.512Z,8.60
2023-03-26T20:34:23.500Z,8.70
2023-03-26T20:36:55.941Z,8.70
2023-03-26T20:39:26.322Z,8.70
2023-03-26T20:41:54.777Z,8.70
2023-03-26T20:44:22.605Z,8.70
2023-03-26T20:46:51.080Z,8.70
2023-03-26T20:49:18.860Z,8.70
2023-03-26T20:51:46.924Z,8.70
2023-03-26T20:54:27.978Z,8.70
2023-03-26T20:56:54.835Z,8.70
2023-03-26T20:59:26.934Z,8.70
2023-03-26T21:01:57.342Z,8.70
2023-03-26T21:04:26.180Z,8.70
2023-03-26T21:07:00.351Z,8.70
2023-03-26T21:09:34.517Z,8.70
2023-03-26T21:12:38.231Z,8.70
2023-03-26T21:15:13.448Z,8.70
2023-03-26T21:17:49.076Z,8.80
2023-03-26T21:20:17.611Z,8.70
2023-03-26T21:23:19.077Z,8.80
2023-03-26T21:26:25.287Z,8.80
2023-03-26T21:28:52.469Z,8.80
2023-03-26T21:31:24.093Z,8.80
2023-03-26T21:33:51.920Z,8.80
2023-03-26T21:36:20.220Z,8.80
2023-03-26T21:38:47.605Z,8.80
2023-03-26T21:42:05.103Z,8.80
2023-03-26T21:44:33.873Z,8.80
2023-03-26T21:47:01.177Z,8.80
2023-03-26T21:49:28.793Z,8.80
2023-03-26T21:51:56.177Z,8.80
2023-03-26T21:54:33.375Z,8.80
2023-03-26T21:57:18.238Z,8.80
2023-03-26T22:00:15.538Z,8.80
2023-03-26T22:03:03.480Z,8.80
2023-03-26T22:05:50.440Z,8.80
2023-03-26T22:08:41.998Z,8.80
2023-03-26T22:11:12.188Z,8.80
2023-03-26T22:13:39.364Z,8.80
2023-03-26T22:16:08.871Z,8.80
2023-03-26T22:18:36.474Z,8.80
2023-03-26T22:21:04.443Z,8.80
2023-03-26T22:23:36.605Z,8.80
2023-03-26T22:26:05.872Z,8.80
2023-03-26T22:28:32.902Z,8.80
2023-03-26T22:31:05.965Z,8.70
2023-03-26T22:33:32.868Z,8.70
2023-03-26T22:35:59.736Z,8.70
2023-03-26T22:38:26.632Z,8.70
2023-03-26T22:40:58.004Z,8.60
2023-03-26T22:43:25.147Z,8.60
2023-03-26T22:45:54.175Z,8.60
2023-03-26T22:48:23.784Z,8.60
2023-03-26T22:51:08.148Z,8.60
2023-03-26T22:53:36.496Z,8.60
2023-03-26T22:56:04.219Z,8.60
2023-03-26T22:58:33.449Z,8.70
2023-03-26T23:01:16.868Z,8.70
2023-03-26T23:03:44.864Z,8.70
2023-03-26T23:06:12.941Z,8.70
2023-03-26T23:08:40.814Z,8.80
2023-03-26T23:11:14.418Z,8.70
2023-03-26T23:13:43.199Z,8.70
2023-03-26T23:16:12.275Z,8.70
2023-03-26T23:18:39.868Z,8.70
2023-03-26T23:21:13.175Z,8.70
2023-03-26T23:23:40.307Z,8.70
2023-03-26T23:26:07.334Z,8.80
2023-03-26T23:28:35.650Z,8.70
2023-03-26T23:31:07.101Z,8.80
2023-03-26T23:33:37.065Z,8.80
2023-03-26T23:36:08.983Z,8.80
2023-03-26T23:38:44.029Z,8.80
2023-03-26T23:41:14.799Z,8.80
2023-03-26T23:43:55.870Z,8.80
2023-03-26T23:46:29.982Z,8.70
2023-03-26T23:49:00.038Z,8.70
2023-03-26T23:51:27.180Z,8.70
2023-03-26T23:53:54.426Z,8.80
2023-03-26T23:56:21.577Z,8.70
2023-03-26T23:58:49.109Z,8.50
